Terminal Aerodrome Forecast
Issued by NWS Cleveland, OH

Home | Current Version | Previous Version | Text Only | Print | Product List | Glossary Off
Versions: 1 2 3 4 5 6 7 8 9 10 11 12 13 14 15 16 17 18 19 20

000
FTUS41 KCLE 020539
TAFERI
TAF
KERI 020539Z 0206/0306 21006KT P6SM SCT080
     FM021600 24012G20KT P6SM SKC
     FM030300 21018G28KT P6SM VCSH BKN040 BKN150=

USA.gov is the U.S. government's official web portal to all federal, state and local government web resources and services.